EIN41 KJFK-EIDW
Flight info
| Callsign | EIN41 |
|---|---|
| Flight time | N/A |
| Altitude | 39000 |
| Route | GREKI DCT JUDDS DCT MARTN DCT CBIRD DCT TAFFY N741B LOMSI/M084F400 DCT 55N050W 56N040W 57N030W 57N020W DCT PIKIL DCT SOVED/N0488F410 DCT REVNU DCT OLAPO OLAPO4L |
| Aircraft | B772/H-SDE2E3FGHIJ5LORVWXY/LB1D1 |
Departure
| Time | 2026-05-07 06:02 |
|---|---|
| Airport | John F. Kennedy International Airport (KJFK) |
Arrival
| Time | N/A |
|---|---|
| Airport | Dublin Airport (EIDW) |
| Time | Latitude | Longitude | Altitude | Speed | Heading |
|---|---|---|---|---|---|
| 2026-05-07 05:26 | 40.64014 | -73.78074 | 27 ft | 0 kts | 247° |
| 2026-05-07 05:50 | 40.64022 | -73.78047 | 27 ft | 4 kts | 247° |
| 2026-05-07 05:50 | 40.64031 | -73.78019 | 27 ft | 3 kts | 247° |
| 2026-05-07 05:51 | 40.64045 | -73.77993 | 27 ft | 4 kts | 204° |
| 2026-05-07 05:51 | 40.64068 | -73.77992 | 27 ft | 4 kts | 154° |
| 2026-05-07 05:51 | 40.64072 | -73.77995 | 27 ft | 4 kts | 151° |
| 2026-05-07 05:51 | 40.64060 | -73.77985 | 27 ft | 0 kts | 150° |
| 2026-05-07 05:56 | 40.64027 | -73.77963 | 27 ft | 13 kts | 157° |
| 2026-05-07 05:56 | 40.63917 | -73.77936 | 27 ft | 17 kts | 172° |
| 2026-05-07 05:56 | 40.63799 | -73.77916 | 27 ft | 17 kts | 173° |
| 2026-05-07 05:57 | 40.63681 | -73.77899 | 27 ft | 17 kts | 174° |
| 2026-05-07 05:57 | 40.63572 | -73.77850 | 27 ft | 17 kts | 133° |
| 2026-05-07 05:57 | 40.63487 | -73.77748 | 28 ft | 17 kts | 175° |
| 2026-05-07 05:57 | 40.63376 | -73.77807 | 31 ft | 17 kts | 202° |
| 2026-05-07 05:58 | 40.63280 | -73.77739 | 32 ft | 17 kts | 125° |
| 2026-05-07 05:58 | 40.63217 | -73.77604 | 33 ft | 17 kts | 121° |
| 2026-05-07 05:58 | 40.63155 | -73.77468 | 34 ft | 17 kts | 121° |
| 2026-05-07 05:58 | 40.63093 | -73.77332 | 31 ft | 17 kts | 121° |
| 2026-05-07 05:59 | 40.63032 | -73.77196 | 31 ft | 17 kts | 121° |
| 2026-05-07 05:59 | 40.62950 | -73.77101 | 28 ft | 12 kts | 179° |
| 2026-05-07 05:59 | 40.62892 | -73.77127 | 28 ft | 0 kts | 208° |
| 2026-05-07 06:00 | 40.62865 | -73.77148 | 28 ft | 9 kts | 210° |
| 2026-05-07 06:00 | 40.62831 | -73.77212 | 28 ft | 9 kts | 267° |
| 2026-05-07 06:01 | 40.62851 | -73.77291 | 29 ft | 9 kts | 300° |
| 2026-05-07 06:01 | 40.62852 | -73.77293 | 29 ft | 0 kts | 300° |
| 2026-05-07 06:01 | 40.62912 | -73.77429 | 32 ft | 57 kts | 300° |
| 2026-05-07 06:02 | 40.63279 | -73.78235 | 27 ft | 146 kts | 301° |
| 2026-05-07 06:02 | 40.63902 | -73.79571 | 436 ft | 184 kts | 302° |
| 2026-05-07 06:02 | 40.64842 | -73.80832 | 1060 ft | 212 kts | 336° |
| 2026-05-07 06:02 | 40.66347 | -73.80918 | 1931 ft | 229 kts | 10° |
| 2026-05-07 06:03 | 40.67952 | -73.80256 | 2435 ft | 251 kts | 15° |
| 2026-05-07 06:03 | 40.69658 | -73.79456 | 3056 ft | 270 kts | 15° |
| 2026-05-07 06:03 | 40.71468 | -73.78541 | 3737 ft | 285 kts | 18° |
| 2026-05-07 06:03 | 40.73318 | -73.77537 | 4630 ft | 290 kts | 19° |
| 2026-05-07 06:04 | 40.75184 | -73.76482 | 5563 ft | 295 kts | 20° |
| 2026-05-07 06:04 | 40.77077 | -73.75377 | 6425 ft | 301 kts | 21° |
| 2026-05-07 06:04 | 40.79003 | -73.74234 | 7304 ft | 306 kts | 21° |
| 2026-05-07 06:04 | 40.80956 | -73.73060 | 8178 ft | 310 kts | 21° |
| 2026-05-07 06:05 | 40.82935 | -73.71859 | 9028 ft | 315 kts | 21° |
| 2026-05-07 06:05 | 40.84939 | -73.70635 | 9863 ft | 319 kts | 21° |
| 2026-05-07 06:05 | 40.86984 | -73.69387 | 10554 ft | 331 kts | 20° |
| 2026-05-07 06:05 | 40.89154 | -73.68062 | 10778 ft | 357 kts | 20° |
| 2026-05-07 06:06 | 40.91463 | -73.66649 | 10989 ft | 384 kts | 20° |
| 2026-05-07 06:06 | 40.93944 | -73.65123 | 11452 ft | 402 kts | 20° |
| 2026-05-07 06:06 | 40.96511 | -73.63534 | 12224 ft | 410 kts | 20° |
| 2026-05-07 06:06 | 40.99114 | -73.61918 | 13058 ft | 416 kts | 20° |
| 2026-05-07 06:07 | 41.01749 | -73.60277 | 13904 ft | 420 kts | 20° |
| 2026-05-07 06:07 | 41.04405 | -73.58626 | 14699 ft | 425 kts | 19° |
| 2026-05-07 06:07 | 41.07105 | -73.56952 | 15430 ft | 431 kts | 19° |
| 2026-05-07 06:07 | 41.09841 | -73.55255 | 16130 ft | 437 kts | 19° |
| 2026-05-07 06:08 | 41.12610 | -73.53537 | 16843 ft | 442 kts | 19° |
| 2026-05-07 06:08 | 41.15411 | -73.51795 | 17521 ft | 447 kts | 19° |
| 2026-05-07 06:08 | 41.18246 | -73.50031 | 18156 ft | 452 kts | 19° |
| 2026-05-07 06:08 | 41.21104 | -73.48250 | 18796 ft | 456 kts | 19° |
| 2026-05-07 06:09 | 41.23995 | -73.46447 | 19393 ft | 460 kts | 18° |
| 2026-05-07 06:09 | 41.26902 | -73.44632 | 19999 ft | 464 kts | 18° |
| 2026-05-07 06:09 | 41.29834 | -73.42799 | 20611 ft | 467 kts | 18° |
| 2026-05-07 06:09 | 41.32792 | -73.40944 | 21184 ft | 471 kts | 17° |
| 2026-05-07 06:10 | 41.35769 | -73.39079 | 21746 ft | 474 kts | 17° |
| 2026-05-07 06:10 | 41.38763 | -73.37203 | 22287 ft | 477 kts | 16° |
| 2026-05-07 06:10 | 41.41788 | -73.35309 | 22732 ft | 483 kts | 16° |
| 2026-05-07 06:10 | 41.44790 | -73.33358 | 23228 ft | 490 kts | 19° |
| 2026-05-07 06:11 | 41.47763 | -73.30921 | 23773 ft | 502 kts | 26° |
| 2026-05-07 06:11 | 41.50535 | -73.28114 | 24256 ft | 512 kts | 32° |
| 2026-05-07 06:11 | 41.53150 | -73.24813 | 24711 ft | 523 kts | 38° |
| 2026-05-07 06:11 | 41.55675 | -73.21279 | 25138 ft | 528 kts | 38° |
| 2026-05-07 06:12 | 41.58253 | -73.17763 | 25566 ft | 530 kts | 37° |
| 2026-05-07 06:12 | 41.61015 | -73.14607 | 25835 ft | 516 kts | 22° |
| 2026-05-07 06:12 | 41.64193 | -73.12646 | 26127 ft | 495 kts | 5° |
| 2026-05-07 06:12 | 41.67507 | -73.11759 | 26577 ft | 478 kts | 353° |
| 2026-05-07 06:13 | 41.70772 | -73.11753 | 26701 ft | 461 kts | 339° |
| 2026-05-07 06:13 | 41.73957 | -73.12363 | 26767 ft | 467 kts | 337° |
| 2026-05-07 06:13 | 41.77208 | -73.13007 | 27030 ft | 475 kts | 338° |
| 2026-05-07 06:13 | 41.80488 | -73.13629 | 27441 ft | 477 kts | 338° |
| 2026-05-07 06:14 | 41.83782 | -73.14222 | 28008 ft | 477 kts | 338° |
| 2026-05-07 06:14 | 41.87080 | -73.14797 | 28457 ft | 480 kts | 338° |
| 2026-05-07 06:14 | 41.90409 | -73.15372 | 28799 ft | 484 kts | 338° |
| 2026-05-07 06:14 | 41.93766 | -73.15949 | 29097 ft | 488 kts | 338° |
| 2026-05-07 06:15 | 41.97144 | -73.16522 | 29467 ft | 490 kts | 338° |
| 2026-05-07 06:15 | 42.00526 | -73.17090 | 29868 ft | 491 kts | 338° |
| 2026-05-07 06:15 | 42.03930 | -73.17667 | 30190 ft | 493 kts | 337° |
| 2026-05-07 06:15 | 42.07340 | -73.18249 | 30501 ft | 495 kts | 337° |
| 2026-05-07 06:16 | 42.10760 | -73.18831 | 30839 ft | 496 kts | 337° |
| 2026-05-07 06:16 | 42.14187 | -73.19414 | 31140 ft | 497 kts | 337° |
| 2026-05-07 06:16 | 42.17612 | -73.19999 | 31612 ft | 493 kts | 337° |
| 2026-05-07 06:16 | 42.20993 | -73.20570 | 32212 ft | 488 kts | 337° |
| 2026-05-07 06:17 | 42.24348 | -73.21147 | 32582 ft | 485 kts | 336° |
| 2026-05-07 06:17 | 42.27707 | -73.21718 | 32883 ft | 486 kts | 336° |
| 2026-05-07 06:17 | 42.31051 | -73.22293 | 33319 ft | 483 kts | 336° |
| 2026-05-07 06:17 | 42.34379 | -73.22874 | 33722 ft | 481 kts | 336° |
| 2026-05-07 06:18 | 42.37678 | -73.23449 | 34319 ft | 476 kts | 336° |
| 2026-05-07 06:18 | 42.40955 | -73.24019 | 34718 ft | 475 kts | 336° |
| 2026-05-07 06:18 | 42.43126 | -73.24397 | 34944 ft | 474 kts | 336° |
| 2026-05-07 06:18 | 42.46399 | -73.24967 | 35305 ft | 473 kts | 336° |
| 2026-05-07 06:19 | 42.49656 | -73.25531 | 35671 ft | 472 kts | 336° |
| 2026-05-07 06:19 | 42.53976 | -73.26223 | 36123 ft | 477 kts | 341° |
| 2026-05-07 06:19 | 42.57399 | -73.25976 | 36290 ft | 511 kts | 356° |
| 2026-05-07 06:19 | 42.59773 | -73.25144 | 36417 ft | 533 kts | 6° |
| 2026-05-07 06:20 | 42.63150 | -73.22905 | 36610 ft | 560 kts | 21° |
| 2026-05-07 06:20 | 42.66444 | -73.19896 | 36981 ft | 562 kts | 24° |
| 2026-05-07 06:20 | 42.69620 | -73.16827 | 37505 ft | 558 kts | 25° |
| 2026-05-07 06:20 | 42.72716 | -73.13799 | 37953 ft | 553 kts | 25° |
| 2026-05-07 06:21 | 42.75849 | -73.10768 | 38338 ft | 550 kts | 24° |
| 2026-05-07 06:21 | 42.78983 | -73.07795 | 38576 ft | 549 kts | 23° |
| 2026-05-07 06:21 | 42.82127 | -73.04858 | 38759 ft | 548 kts | 23° |
| 2026-05-07 06:22 | 42.88483 | -72.98998 | 38902 ft | 552 kts | 23° |
| 2026-05-07 06:22 | 42.97965 | -72.90219 | 38876 ft | 544 kts | 24° |
| 2026-05-07 06:23 | 43.04228 | -72.84391 | 38856 ft | 543 kts | 24° |
| 2026-05-07 06:23 | 43.10459 | -72.78576 | 38894 ft | 542 kts | 24° |
| 2026-05-07 06:24 | 43.16694 | -72.72738 | 38855 ft | 544 kts | 24° |
| 2026-05-07 06:24 | 43.22904 | -72.66918 | 38852 ft | 544 kts | 25° |
| 2026-05-07 06:25 | 43.29188 | -72.61011 | 38861 ft | 543 kts | 25° |
| 2026-05-07 06:25 | 43.35380 | -72.55168 | 38864 ft | 543 kts | 25° |
| 2026-05-07 06:26 | 43.41603 | -72.49285 | 38892 ft | 542 kts | 25° |
| 2026-05-07 06:26 | 43.47818 | -72.43391 | 38893 ft | 542 kts | 26° |
| 2026-05-07 06:27 | 43.54040 | -72.37480 | 38859 ft | 543 kts | 26° |
| 2026-05-07 06:27 | 43.60263 | -72.31554 | 38842 ft | 544 kts | 26° |
| 2026-05-07 06:28 | 43.66481 | -72.25614 | 38830 ft | 544 kts | 26° |
| 2026-05-07 06:28 | 43.72698 | -72.19660 | 38871 ft | 543 kts | 27° |
| 2026-05-07 06:29 | 43.78895 | -72.13708 | 38836 ft | 542 kts | 27° |
| 2026-05-07 06:29 | 43.85096 | -72.07743 | 38847 ft | 542 kts | 27° |
| 2026-05-07 06:30 | 43.91235 | -72.01818 | 38849 ft | 541 kts | 27° |
| 2026-05-07 06:30 | 43.97409 | -71.95848 | 38817 ft | 540 kts | 27° |
| 2026-05-07 06:31 | 44.03556 | -71.89876 | 38833 ft | 539 kts | 27° |
| 2026-05-07 06:31 | 44.09705 | -71.83903 | 38838 ft | 540 kts | 27° |
| 2026-05-07 06:32 | 44.15859 | -71.77904 | 38853 ft | 539 kts | 27° |
| 2026-05-07 06:32 | 44.21996 | -71.71906 | 38845 ft | 539 kts | 27° |
| 2026-05-07 06:33 | 44.28138 | -71.65880 | 38819 ft | 541 kts | 28° |
| 2026-05-07 06:33 | 44.34306 | -71.59823 | 38844 ft | 540 kts | 28° |
| 2026-05-07 06:34 | 44.40452 | -71.53772 | 38817 ft | 542 kts | 28° |
| 2026-05-07 06:34 | 44.46617 | -71.47680 | 38824 ft | 542 kts | 28° |
| 2026-05-07 06:35 | 44.52766 | -71.41589 | 38837 ft | 541 kts | 29° |
| 2026-05-07 06:35 | 44.58863 | -71.35538 | 38849 ft | 539 kts | 29° |
| 2026-05-07 06:36 | 44.64983 | -71.29446 | 38822 ft | 539 kts | 29° |
| 2026-05-07 06:36 | 44.71095 | -71.23340 | 38807 ft | 538 kts | 29° |
| 2026-05-07 06:37 | 44.77180 | -71.17247 | 38869 ft | 535 kts | 30° |
| 2026-05-07 06:37 | 44.83240 | -71.11129 | 38796 ft | 537 kts | 32° |
| 2026-05-07 06:38 | 44.88836 | -71.04038 | 38781 ft | 543 kts | 40° |
| 2026-05-07 06:38 | 44.94138 | -70.96454 | 38837 ft | 542 kts | 41° |
| 2026-05-07 06:39 | 44.99419 | -70.88875 | 38818 ft | 541 kts | 41° |
| 2026-05-07 06:39 | 45.04737 | -70.81328 | 38788 ft | 542 kts | 41° |
| 2026-05-07 06:40 | 45.10063 | -70.73792 | 38787 ft | 541 kts | 41° |
| 2026-05-07 06:40 | 45.15384 | -70.66244 | 38789 ft | 541 kts | 41° |
| 2026-05-07 06:41 | 45.20653 | -70.58740 | 38784 ft | 540 kts | 41° |
| 2026-05-07 06:41 | 45.25946 | -70.51178 | 38779 ft | 540 kts | 41° |
| 2026-05-07 06:42 | 45.31231 | -70.43607 | 38785 ft | 540 kts | 42° |
| 2026-05-07 06:42 | 45.36518 | -70.36009 | 38763 ft | 539 kts | 42° |
| 2026-05-07 06:43 | 45.41784 | -70.28425 | 38755 ft | 539 kts | 42° |
| 2026-05-07 06:43 | 45.47047 | -70.20821 | 38759 ft | 538 kts | 43° |
| 2026-05-07 06:44 | 45.52300 | -70.13211 | 38786 ft | 537 kts | 43° |
| 2026-05-07 06:44 | 45.57531 | -70.05612 | 38800 ft | 536 kts | 43° |